createdAt,value
2023-09-23T00:03:47.559Z,23.36
2023-09-23T00:08:04.527Z,23.53
2023-09-23T00:12:21.010Z,23.15
2023-09-23T00:16:37.298Z,22.80
2023-09-23T00:20:53.866Z,23.09
2023-09-23T00:25:11.026Z,22.70
2023-09-23T00:29:30.146Z,22.71
2023-09-23T00:33:46.835Z,22.79
2023-09-23T00:38:03.868Z,22.66
2023-09-23T00:42:23.233Z,22.47
2023-09-23T00:46:41.394Z,22.47
2023-09-23T00:50:58.305Z,22.64
2023-09-23T00:55:16.219Z,22.26
2023-09-23T00:59:34.075Z,22.26
2023-09-23T01:03:51.255Z,22.19
2023-09-23T01:08:22.005Z,22.25
2023-09-23T01:12:38.334Z,22.02
2023-09-23T01:16:54.848Z,22.16
2023-09-23T01:21:11.221Z,21.82
2023-09-23T01:25:27.594Z,22.01
2023-09-23T01:29:43.911Z,21.96
2023-09-23T01:34:00.278Z,21.80
2023-09-23T01:38:17.054Z,21.73
2023-09-23T01:42:34.215Z,21.89
2023-09-23T01:46:50.960Z,21.96
2023-09-23T01:51:07.841Z,21.82
2023-09-23T01:55:24.204Z,21.39
2023-09-23T01:59:42.053Z,21.63
2023-09-23T02:03:59.594Z,21.93
2023-09-23T02:08:17.333Z,21.62
2023-09-23T02:12:34.610Z,21.70
2023-09-23T02:16:51.154Z,21.72
2023-09-23T02:21:08.732Z,21.85
2023-09-23T02:25:26.414Z,21.89
2023-09-23T02:29:42.982Z,21.91
2023-09-23T02:33:59.398Z,21.83
2023-09-23T02:38:15.833Z,22.27
2023-09-23T02:42:32.155Z,22.19
2023-09-23T02:46:49.749Z,22.27
2023-09-23T02:51:06.328Z,22.24
2023-09-23T02:55:22.819Z,21.98
2023-09-23T02:59:43.204Z,22.00
2023-09-23T03:04:08.134Z,22.05
2023-09-23T03:08:25.020Z,22.10
2023-09-23T03:12:52.634Z,21.96
2023-09-23T03:17:10.704Z,21.89
2023-09-23T03:21:27.170Z,21.94
2023-09-23T03:25:47.853Z,22.06
2023-09-23T03:30:07.236Z,21.92
2023-09-23T03:34:23.682Z,21.89
2023-09-23T03:38:40.051Z,21.81
2023-09-23T03:42:56.561Z,21.82
2023-09-23T03:47:12.984Z,21.89
2023-09-23T03:51:29.538Z,21.70
2023-09-23T03:55:45.927Z,21.73
2023-09-23T04:00:02.924Z,21.71
2023-09-23T04:04:19.396Z,21.60
2023-09-23T04:08:35.739Z,21.60
2023-09-23T04:12:54.451Z,21.33
2023-09-23T04:17:11.878Z,21.44
2023-09-23T04:21:28.647Z,21.61
2023-09-23T04:25:45.581Z,21.57
2023-09-23T04:30:13.036Z,21.58
2023-09-23T04:34:30.877Z,21.32
2023-09-23T04:38:47.554Z,21.49
2023-09-23T04:43:04.828Z,21.23
2023-09-23T04:47:21.319Z,21.06
2023-09-23T04:51:37.939Z,21.13
2023-09-23T04:55:54.349Z,20.97
2023-09-23T05:00:11.959Z,21.06
2023-09-23T05:04:28.747Z,21.06
2023-09-23T05:08:45.340Z,21.07
2023-09-23T05:13:01.851Z,21.08
2023-09-23T05:17:18.454Z,20.97
2023-09-23T05:21:35.029Z,20.89
2023-09-23T05:25:51.780Z,21.00
2023-09-23T05:30:11.910Z,20.96
2023-09-23T05:34:28.705Z,20.90
2023-09-23T05:38:45.262Z,20.74
2023-09-23T05:43:01.779Z,21.00
2023-09-23T05:47:18.320Z,20.59
2023-09-23T05:51:35.077Z,20.04
2023-09-23T05:55:51.824Z,20.24
2023-09-23T06:00:13.716Z,19.79
2023-09-23T06:04:31.754Z,19.77
2023-09-23T06:08:52.059Z,19.58
2023-09-23T06:13:09.058Z,19.47
2023-09-23T06:17:30.042Z,19.41
2023-09-23T06:21:46.990Z,19.76
2023-09-23T06:26:04.222Z,19.02
2023-09-23T06:30:20.673Z,18.97
2023-09-23T06:34:37.656Z,19.30
2023-09-23T06:38:54.360Z,19.45
2023-09-23T06:43:10.960Z,19.12
2023-09-23T06:47:27.646Z,19.13
2023-09-23T06:51:44.033Z,19.25
2023-09-23T06:56:00.533Z,19.32
2023-09-23T07:00:17.753Z,19.27
2023-09-23T07:04:34.379Z,18.72
2023-09-23T07:08:50.851Z,19.17
2023-09-23T07:13:09.925Z,19.00
2023-09-23T07:17:29.227Z,18.71
2023-09-23T07:21:45.751Z,19.14
2023-09-23T07:26:02.500Z,18.88
2023-09-23T07:30:19.282Z,18.52
2023-09-23T07:34:35.660Z,18.50
2023-09-23T07:38:52.042Z,18.67
2023-09-23T07:43:08.764Z,18.87
2023-09-23T07:47:26.743Z,18.26
2023-09-23T07:51:44.542Z,18.79
2023-09-23T07:56:01.269Z,19.16
2023-09-23T08:00:18.654Z,19.19
2023-09-23T08:04:39.089Z,19.29
2023-09-23T08:08:56.343Z,19.46
2023-09-23T08:13:12.811Z,19.50
2023-09-23T08:17:29.509Z,19.61
2023-09-23T08:21:47.242Z,19.70
2023-09-23T08:26:05.687Z,19.91
2023-09-23T08:30:22.813Z,20.20
2023-09-23T08:34:39.096Z,20.40
2023-09-23T08:38:55.727Z,20.59
2023-09-23T08:43:12.415Z,21.05
2023-09-23T08:47:30.492Z,21.01
2023-09-23T08:51:46.983Z,21.15
2023-09-23T08:56:03.806Z,20.95
2023-09-23T09:00:20.505Z,20.71
2023-09-23T09:04:37.594Z,20.05
2023-09-23T09:08:54.025Z,20.93
2023-09-23T09:13:10.531Z,20.90
2023-09-23T09:17:26.943Z,20.63
2023-09-23T09:21:43.328Z,20.86
2023-09-23T09:26:00.167Z,21.29
2023-09-23T09:30:17.065Z,20.97
2023-09-23T09:34:38.365Z,20.62
2023-09-23T09:38:56.192Z,20.36
2023-09-23T09:43:12.825Z,19.98
2023-09-23T09:47:29.737Z,20.25
2023-09-23T09:51:50.433Z,20.14
2023-09-23T09:56:07.875Z,20.13
2023-09-23T10:00:24.318Z,19.99
2023-09-23T10:04:46.317Z,19.67
2023-09-23T10:09:15.083Z,19.50
2023-09-23T10:13:33.214Z,19.50
2023-09-23T10:17:55.107Z,19.43
2023-09-23T10:22:19.689Z,19.27
2023-09-23T10:26:41.069Z,19.66
2023-09-23T10:31:08.256Z,19.72
2023-09-23T10:35:25.223Z,19.78
2023-09-23T10:39:46.151Z,19.39
2023-09-23T10:44:05.864Z,19.40
2023-09-23T10:48:22.774Z,19.14
2023-09-23T10:52:39.668Z,18.22
2023-09-23T10:57:08.048Z,18.69
2023-09-23T11:01:25.660Z,18.73
2023-09-23T11:05:45.148Z,18.89
2023-09-23T11:10:01.467Z,18.24
2023-09-23T11:14:21.571Z,18.26
2023-09-23T11:18:39.097Z,18.26
2023-09-23T11:23:05.250Z,18.20
2023-09-23T11:27:25.761Z,18.26
2023-09-23T11:31:42.095Z,18.52
2023-09-23T11:35:58.847Z,18.52
2023-09-23T11:40:18.964Z,18.67
2023-09-23T11:44:35.937Z,18.84
2023-09-23T11:48:52.430Z,18.96
2023-09-23T11:53:08.758Z,18.86
2023-09-23T11:57:25.112Z,19.17
2023-09-23T12:01:41.977Z,19.01
2023-09-23T12:05:59.008Z,19.09
2023-09-23T12:10:15.462Z,18.85
2023-09-23T12:14:31.881Z,18.78
2023-09-23T12:18:49.643Z,18.45
2023-09-23T12:23:06.054Z,18.33
2023-09-23T12:27:23.448Z,18.60
2023-09-23T12:31:39.832Z,18.19
2023-09-23T12:35:56.318Z,18.32
2023-09-23T12:40:12.904Z,18.25
2023-09-23T12:44:29.502Z,18.15
2023-09-23T12:48:46.821Z,18.37
2023-09-23T12:53:03.619Z,18.70
2023-09-23T12:57:19.977Z,18.34
2023-09-23T13:01:37.086Z,17.67
2023-09-23T13:05:53.619Z,17.41
2023-09-23T13:10:14.830Z,17.51
2023-09-23T13:14:31.393Z,17.78
2023-09-23T13:18:48.026Z,18.28
2023-09-23T13:23:10.220Z,18.07
2023-09-23T13:27:26.644Z,18.16
2023-09-23T13:31:43.056Z,18.11
2023-09-23T13:35:59.470Z,18.12
2023-09-23T13:40:16.269Z,18.74
2023-09-23T13:44:32.771Z,19.18
2023-09-23T13:48:49.427Z,18.49
2023-09-23T13:53:06.414Z,18.67
2023-09-23T13:57:23.174Z,18.76
2023-09-23T14:01:39.528Z,18.51
2023-09-23T14:05:55.931Z,18.31
2023-09-23T14:10:21.508Z,18.05
2023-09-23T14:14:39.095Z,18.35
2023-09-23T14:18:55.467Z,18.44
2023-09-23T14:23:12.574Z,18.35
2023-09-23T14:27:28.916Z,18.65
2023-09-23T14:31:45.346Z,18.64
2023-09-23T14:36:01.764Z,19.00
2023-09-23T14:40:18.298Z,18.64
2023-09-23T14:44:34.745Z,18.86
2023-09-23T14:48:51.157Z,19.13
2023-09-23T14:53:08.267Z,18.72
2023-09-23T14:57:24.870Z,18.91
2023-09-23T15:01:41.365Z,19.04
2023-09-23T15:05:57.908Z,18.68
2023-09-23T15:10:14.631Z,19.17
2023-09-23T15:14:31.250Z,19.25
2023-09-23T15:18:48.572Z,19.21
2023-09-23T15:23:06.104Z,19.39
2023-09-23T15:27:24.652Z,19.36
2023-09-23T15:31:42.195Z,19.44
2023-09-23T15:35:58.652Z,19.56
2023-09-23T15:40:17.829Z,19.63
2023-09-23T15:44:34.563Z,19.46
2023-09-23T15:48:51.501Z,19.18
2023-09-23T15:53:08.032Z,19.15
2023-09-23T15:57:24.527Z,19.30
2023-09-23T16:01:40.893Z,19.27
2023-09-23T16:05:57.611Z,19.11
2023-09-23T16:10:14.006Z,18.95
2023-09-23T16:14:30.392Z,18.84
2023-09-23T16:18:47.323Z,19.30
2023-09-23T16:23:03.814Z,18.77
2023-09-23T16:27:22.870Z,18.36
2023-09-23T16:31:39.216Z,18.47
2023-09-23T16:35:55.748Z,18.66
2023-09-23T16:40:12.592Z,18.68
2023-09-23T16:44:28.889Z,18.84
2023-09-23T16:48:45.687Z,18.74
2023-09-23T16:53:02.229Z,18.67
2023-09-23T16:57:22.322Z,18.79
2023-09-23T17:01:39.478Z,18.93
2023-09-23T17:05:57.456Z,18.91
2023-09-23T17:10:14.112Z,18.73
2023-09-23T17:14:30.814Z,18.99
2023-09-23T17:18:48.085Z,18.77
2023-09-23T17:23:04.877Z,18.92
2023-09-23T17:27:21.291Z,18.63
2023-09-23T17:31:38.393Z,18.62
2023-09-23T17:36:00.878Z,18.04
2023-09-23T17:40:17.589Z,18.10
2023-09-23T17:44:36.120Z,18.54
2023-09-23T17:48:54.116Z,18.37
2023-09-23T17:53:10.746Z,18.61
2023-09-23T17:57:29.804Z,18.28
2023-09-23T18:01:46.636Z,18.67
2023-09-23T18:06:04.035Z,18.85
2023-09-23T18:10:20.493Z,18.88
2023-09-23T18:14:37.250Z,18.84
2023-09-23T18:18:53.959Z,18.81
2023-09-23T18:23:28.306Z,19.06
2023-09-23T18:27:50.295Z,18.85
2023-09-23T18:32:09.387Z,19.02
2023-09-23T18:36:30.661Z,18.92
2023-09-23T18:40:47.579Z,19.06
2023-09-23T18:45:06.783Z,19.02
2023-09-23T18:49:25.021Z,18.94
2023-09-23T18:53:41.795Z,18.68
2023-09-23T18:57:58.433Z,18.53
2023-09-23T19:02:15.319Z,18.71
2023-09-23T19:06:31.980Z,18.57
2023-09-23T19:10:51.423Z,18.75
2023-09-23T19:15:09.311Z,18.62
2023-09-23T19:19:25.742Z,18.50
2023-09-23T19:23:48.375Z,18.37
2023-09-23T19:28:05.399Z,18.31
2023-09-23T19:32:21.673Z,18.10
2023-09-23T19:36:38.531Z,18.29
2023-09-23T19:40:54.882Z,18.42
2023-09-23T19:45:12.637Z,18.25
2023-09-23T19:49:32.038Z,17.62
2023-09-23T19:53:48.597Z,17.68
2023-09-23T19:58:08.728Z,17.95
2023-09-23T20:02:26.044Z,17.47
2023-09-23T20:06:43.160Z,17.76
2023-09-23T20:11:04.189Z,17.99
2023-09-23T20:15:26.476Z,17.82
2023-09-23T20:19:42.877Z,18.07
2023-09-23T20:23:59.420Z,17.78
2023-09-23T20:28:18.966Z,17.76
2023-09-23T20:32:41.956Z,17.80
2023-09-23T20:37:00.912Z,17.68
2023-09-23T20:41:17.306Z,17.58
2023-09-23T20:45:36.047Z,16.96
2023-09-23T20:49:52.425Z,17.48
2023-09-23T20:54:08.799Z,17.38
2023-09-23T20:58:25.633Z,17.53
2023-09-23T21:02:43.591Z,17.22
2023-09-23T21:07:00.308Z,17.33
2023-09-23T21:11:18.312Z,17.41
2023-09-23T21:15:34.708Z,17.13
2023-09-23T21:19:51.680Z,17.25
2023-09-23T21:24:08.604Z,17.00
2023-09-23T21:28:25.062Z,16.99
2023-09-23T21:32:41.686Z,17.19
2023-09-23T21:36:58.726Z,17.27
2023-09-23T21:41:16.128Z,16.93
2023-09-23T21:45:32.711Z,17.14
2023-09-23T21:49:49.044Z,17.31
2023-09-23T21:54:06.081Z,17.09
2023-09-23T21:58:23.255Z,17.21
2023-09-23T22:02:39.706Z,16.89
2023-09-23T22:06:56.929Z,16.70
2023-09-23T22:11:13.666Z,17.12
2023-09-23T22:15:30.921Z,17.02
2023-09-23T22:19:47.275Z,16.96
2023-09-23T22:24:07.274Z,16.99
2023-09-23T22:28:23.652Z,17.04
2023-09-23T22:32:40.278Z,17.14
2023-09-23T22:36:56.675Z,17.20
2023-09-23T22:41:13.117Z,17.33
2023-09-23T22:45:38.526Z,17.09
2023-09-23T22:49:56.660Z,17.10
2023-09-23T22:54:13.271Z,17.56
2023-09-23T22:58:29.626Z,17.40
2023-09-23T23:02:47.705Z,17.48
2023-09-23T23:07:04.446Z,17.51
2023-09-23T23:11:22.127Z,17.49
2023-09-23T23:15:39.757Z,17.60
2023-09-23T23:19:57.071Z,17.83
2023-09-23T23:24:13.943Z,17.48
2023-09-23T23:28:32.429Z,16.92
2023-09-23T23:32:49.888Z,17.26
2023-09-23T23:37:08.487Z,17.53
2023-09-23T23:41:25.261Z,17.36
2023-09-23T23:45:41.655Z,17.30
2023-09-23T23:50:01.260Z,17.50
2023-09-23T23:54:18.261Z,17.91
2023-09-23T23:58:35.173Z,17.80
